Time;durP1;ratioP1;P1;durP2;ratioP2;P2;SDS_P1;SDS_P2;PMS_P1;PMS_P2;Temp;Humidity;BMP_temperature;BMP_pressure;BME280_temperature;BME280_humidity;BME280_pressure;Samples;Min_cycle;Max_cycle;Signal;HPM_P1;HPM_P2
2020/12/12 00:01:18;;;;;;;;;;;;;;;7.25;100.00;97598.97;4863486;29;19928;-75
2020/12/12 00:03:45;;;;;;;;;;;;;;;7.29;100.00;97604.44;4863746;29;19928;-75
2020/12/12 00:06:12;;;;;;;;;;;;;;;7.26;100.00;97602.53;4863721;29;19928;-74
2020/12/12 00:08:38;;;;;;;;;;;;;;;7.30;100.00;97606.00;4863499;29;19928;-74
2020/12/12 00:11:05;;;;;;;;;;;;;;;7.33;100.00;97610.69;4863685;29;19932;-74
2020/12/12 00:13:32;;;;;;;;;;;;;;;7.25;100.00;97614.88;4863471;29;19928;-75
2020/12/12 00:15:58;;;;;;;;;;;;;;;7.21;100.00;97614.16;4863519;29;20714;-75
2020/12/12 00:18:25;;;;;;;;;;;;;;;7.25;100.00;97603.78;4862415;29;19928;-75
2020/12/12 00:20:51;;;;;;;;;;;;;;;7.23;100.00;97614.53;4863415;29;19928;-75
2020/12/12 00:23:20;;;;;;;;;;;;;;;7.38;100.00;97612.94;4863306;29;19934;-74
2020/12/12 00:25:47;;;;;;;;;;;;;;;7.44;100.00;97616.75;4846912;29;19939;-75
2020/12/12 00:28:23;;;;;;;;;;;;;;;7.39;100.00;97614.50;4847288;29;19933;-75
2020/12/12 00:30:49;;;;;;;;;;;;;;;7.36;100.00;97610.59;4861996;29;19928;-75
2020/12/12 00:33:16;;;;;;;;;;;;;;;7.50;100.00;97611.47;4863245;29;19928;-74
2020/12/12 00:35:42;;;;;;;;;;;;;;;7.42;100.00;97613.66;4846755;29;19938;-74
2020/12/12 00:38:09;;;;;;;;;;;;;;;7.39;100.00;97615.28;4862984;29;19934;-75
2020/12/12 00:40:36;;;;;;;;;;;;;;;7.38;100.00;97623.28;4861849;29;20288;-74
2020/12/12 00:43:02;;;;;;;;;;;;;;;7.33;100.00;97622.59;4862874;29;19928;-74
2020/12/12 00:45:29;;;;;;;;;;;;;;;7.33;100.00;97617.03;4862885;29;19928;-75
2020/12/12 00:47:55;;;;;;;;;;;;;;;7.35;100.00;97622.16;4846298;29;19928;-74
2020/12/12 00:50:23;;;;;;;;;;;;;;;7.33;100.00;97625.38;4846425;29;19928;-75
2020/12/12 00:52:50;;;;;;;;;;;;;;;7.33;100.00;97628.13;4861466;29;20031;-74
2020/12/12 00:55:17;;;;;;;;;;;;;;;7.26;100.00;97620.00;4861610;29;20549;-74
2020/12/12 00:57:45;;;;;;;;;;;;;;;7.25;100.00;97621.19;4846055;29;19951;-74
2020/12/12 01:00:11;;;;;;;;;;;;;;;7.34;100.00;97628.94;4862483;29;19935;-74
2020/12/12 01:02:38;;;;;;;;;;;;;;;7.41;100.00;97620.41;4846517;29;19928;-74
2020/12/12 01:05:04;;;;;;;;;;;;;;;7.41;100.00;97628.72;4846081;29;19928;-74
2020/12/12 01:07:31;;;;;;;;;;;;;;;7.42;100.00;97635.09;4862499;29;19935;-74
2020/12/12 01:09:57;;;;;;;;;;;;;;;7.41;100.00;97634.28;4862409;29;19928;-75
2020/12/12 01:12:24;;;;;;;;;;;;;;;7.40;100.00;97632.75;4862392;29;19928;-74
2020/12/12 01:14:50;;;;;;;;;;;;;;;7.48;100.00;97633.34;4862552;29;19928;-74
2020/12/12 01:17:17;;;;;;;;;;;;;;;7.51;100.00;97638.81;4862492;29;19955;-74
2020/12/12 01:19:43;;;;;;;;;;;;;;;7.44;100.00;97650.09;4862384;29;19975;-74
2020/12/12 01:22:10;;;;;;;;;;;;;;;7.45;100.00;97645.31;4862177;29;19928;-74
2020/12/12 01:24:37;;;;;;;;;;;;;;;7.36;100.00;97655.06;4845796;29;20070;-74
2020/12/12 01:27:03;;;;;;;;;;;;;;;7.36;100.00;97654.28;4861039;29;19985;-74
2020/12/12 01:29:30;;;;;;;;;;;;;;;7.47;100.00;97660.34;4830614;29;19928;-74
2020/12/12 01:31:56;;;;;;;;;;;;;;;7.49;100.00;97654.34;4862203;29;19987;-74
2020/12/12 01:34:23;;;;;;;;;;;;;;;7.48;100.00;97666.69;4862183;29;19928;-74
2020/12/12 01:36:49;;;;;;;;;;;;;;;7.47;100.00;97667.91;4861804;29;19978;-74
2020/12/12 01:39:16;;;;;;;;;;;;;;;7.42;100.00;97673.97;4844752;29;19985;-74
2020/12/12 01:41:43;;;;;;;;;;;;;;;7.38;100.00;97676.09;4861845;29;20023;-74
2020/12/12 01:44:09;;;;;;;;;;;;;;;7.37;100.00;97678.06;4862020;29;19935;-74
2020/12/12 01:46:36;;;;;;;;;;;;;;;7.34;100.00;97682.50;4861658;29;19928;-74
2020/12/12 01:49:03;;;;;;;;;;;;;;;7.36;100.00;97691.16;4861959;29;19935;-74
2020/12/12 01:51:30;;;;;;;;;;;;;;;7.29;100.00;97690.56;4861595;29;19936;-74
2020/12/12 01:53:57;;;;;;;;;;;;;;;7.27;100.00;97698.53;4862113;29;19935;-74
2020/12/12 01:56:24;;;;;;;;;;;;;;;7.21;100.00;97701.06;4861787;29;19928;-74
2020/12/12 01:58:52;;;;;;;;;;;;;;;7.26;100.00;97697.00;4845128;29;19928;-74
2020/12/12 02:01:21;;;;;;;;;;;;;;;7.19;100.00;97716.63;4861563;29;19928;-74
2020/12/12 02:03:49;;;;;;;;;;;;;;;7.17;100.00;97713.50;4861550;29;19976;-74
2020/12/12 02:06:17;;;;;;;;;;;;;;;7.18;100.00;97715.03;4861634;29;19928;-74
2020/12/12 02:08:44;;;;;;;;;;;;;;;7.17;100.00;97724.59;4845220;29;20064;-74
2020/12/12 02:11:12;;;;;;;;;;;;;;;7.15;100.00;97715.91;4861435;29;19928;-74
2020/12/12 02:13:46;;;;;;;;;;;;;;;7.13;100.00;97723.91;4861648;29;19992;-74
2020/12/12 02:16:16;;;;;;;;;;;;;;;7.22;100.00;97732.41;4845019;29;19957;-74
2020/12/12 02:18:43;;;;;;;;;;;;;;;7.25;100.00;97732.31;4861342;29;19928;-74
2020/12/12 02:21:10;;;;;;;;;;;;;;;7.33;100.00;97739.28;4861400;29;19928;-74
2020/12/12 02:23:37;;;;;;;;;;;;;;;7.31;100.00;97736.13;4861475;29;20496;-74
2020/12/12 02:26:04;;;;;;;;;;;;;;;7.37;100.00;97733.63;4861410;29;19928;-74
2020/12/12 02:28:44;;;;;;;;;;;;;;;7.34;100.00;97745.63;4861356;29;20268;-74
2020/12/12 02:31:11;;;;;;;;;;;;;;;7.37;100.00;97741.97;4845030;29;19928;-74
2020/12/12 02:33:38;;;;;;;;;;;;;;;7.32;100.00;97742.50;4861204;29;19957;-74
2020/12/12 02:36:06;;;;;;;;;;;;;;;7.26;100.00;97755.34;4861448;29;19928;-75
2020/12/12 02:38:32;;;;;;;;;;;;;;;7.24;100.00;97754.97;4861252;29;19951;-74
2020/12/12 02:40:58;;;;;;;;;;;;;;;7.27;100.00;97751.34;4860025;29;19935;-74
2020/12/12 02:43:25;;;;;;;;;;;;;;;7.25;100.00;97748.22;4844779;29;20293;-75
2020/12/12 02:45:52;;;;;;;;;;;;;;;7.32;100.00;97753.59;4861218;29;19928;-74
2020/12/12 02:48:19;;;;;;;;;;;;;;;7.28;100.00;97752.91;4844643;29;20022;-75
2020/12/12 02:50:45;;;;;;;;;;;;;;;7.29;100.00;97760.03;4861781;29;19928;-74
2020/12/12 02:53:12;;;;;;;;;;;;;;;7.21;100.00;97759.41;4864884;29;20027;-74
2020/12/12 02:55:39;;;;;;;;;;;;;;;7.23;100.00;97761.75;4848502;29;20007;-74
2020/12/12 02:58:05;;;;;;;;;;;;;;;7.19;100.00;97761.06;4864907;29;19935;-74
2020/12/12 03:00:32;;;;;;;;;;;;;;;7.13;100.00;97758.00;4848262;29;19929;-75
2020/12/12 03:02:59;;;;;;;;;;;;;;;7.15;100.00;97765.91;4848224;29;19928;-74
2020/12/12 03:05:25;;;;;;;;;;;;;;;7.18;100.00;97759.47;4864864;29;19928;-75
2020/12/12 03:07:52;;;;;;;;;;;;;;;7.16;100.00;97767.47;4863560;29;19928;-75
2020/12/12 03:10:18;;;;;;;;;;;;;;;7.14;100.00;97762.38;4864762;29;19928;-74
2020/12/12 03:12:45;;;;;;;;;;;;;;;7.15;100.00;97765.91;4863544;29;19935;-74
2020/12/12 03:15:12;;;;;;;;;;;;;;;7.21;100.00;97769.72;4864680;29;19928;-74
2020/12/12 03:17:38;;;;;;;;;;;;;;;7.32;100.00;97759.16;4864511;29;19928;-74
2020/12/12 03:20:06;;;;;;;;;;;;;;;7.35;100.00;97766.63;4864532;29;19984;-74
2020/12/12 03:22:33;;;;;;;;;;;;;;;7.35;100.00;97761.06;4847702;29;19958;-74
2020/12/12 03:25:00;;;;;;;;;;;;;;;7.41;100.00;97767.66;4847981;29;19928;-74
2020/12/12 03:27:27;;;;;;;;;;;;;;;7.38;100.00;97762.97;4848099;29;19932;-74
2020/12/12 03:29:53;;;;;;;;;;;;;;;7.46;100.00;97772.72;4864463;29;19935;-74
2020/12/12 03:32:27;;;;;;;;;;;;;;;7.52;100.00;97762.66;4863068;29;19939;-74
2020/12/12 03:34:53;;;;;;;;;;;;;;;7.53;100.00;97763.44;4847912;29;19928;-74
2020/12/12 03:37:20;;;;;;;;;;;;;;;7.51;100.00;97772.22;4864280;29;19928;-74
2020/12/12 03:39:46;;;;;;;;;;;;;;;7.45;100.00;97773.16;4864178;29;20353;-75
2020/12/12 03:42:13;;;;;;;;;;;;;;;7.41;100.00;97770.44;4847653;29;20039;-74
2020/12/12 03:44:40;;;;;;;;;;;;;;;7.34;100.00;97774.19;4847898;29;19928;-74
2020/12/12 03:47:06;;;;;;;;;;;;;;;7.39;100.00;97775.69;4863736;29;20338;-74
2020/12/12 03:49:33;;;;;;;;;;;;;;;7.31;100.00;97769.47;4862687;29;19928;-75
2020/12/12 03:52:00;;;;;;;;;;;;;;;7.30;100.00;97769.91;4863927;29;20035;-74
2020/12/12 03:54:27;;;;;;;;;;;;;;;7.34;100.00;97770.63;4864053;29;19928;-74
2020/12/12 03:56:54;;;;;;;;;;;;;;;7.34;100.00;97767.84;4863944;29;19928;-74
2020/12/12 03:59:20;;;;;;;;;;;;;;;7.35;100.00;97766.63;4863962;29;19968;-75
2020/12/12 04:01:48;;;;;;;;;;;;;;;7.33;100.00;97766.28;4863328;29;19936;-74
2020/12/12 04:04:15;;;;;;;;;;;;;;;7.33;100.00;97766.28;4863193;29;20023;-74
2020/12/12 04:06:41;;;;;;;;;;;;;;;7.30;100.00;97767.13;4863803;29;19936;-74
2020/12/12 04:09:08;;;;;;;;;;;;;;;7.34;100.00;97757.53;4863827;29;19932;-74
2020/12/12 04:11:34;;;;;;;;;;;;;;;7.32;100.00;97759.16;4863902;29;20023;-74
2020/12/12 04:14:01;;;;;;;;;;;;;;;7.27;100.00;97768.00;4864007;29;19928;-74
2020/12/12 04:16:28;;;;;;;;;;;;;;;7.27;100.00;97760.47;4863598;29;19988;-74
2020/12/12 04:18:54;;;;;;;;;;;;;;;7.31;100.00;97755.59;4847133;29;19928;-74
2020/12/12 04:21:21;;;;;;;;;;;;;;;7.34;100.00;97754.75;4846989;29;19935;-74
2020/12/12 04:23:47;;;;;;;;;;;;;;;7.38;100.00;97757.41;4847099;29;20399;-74
2020/12/12 04:26:14;;;;;;;;;;;;;;;7.34;100.00;97763.09;4863542;29;19928;-74
2020/12/12 04:28:41;;;;;;;;;;;;;;;7.39;100.00;97754.22;4847259;29;19935;-74
2020/12/12 04:31:08;;;;;;;;;;;;;;;7.47;100.00;97756.84;4862173;29;19936;-74
2020/12/12 04:33:35;;;;;;;;;;;;;;;7.45;100.00;97762.84;4863426;29;19928;-74
2020/12/12 04:36:02;;;;;;;;;;;;;;;7.44;100.00;97761.25;4863419;29;20369;-74
2020/12/12 04:38:31;;;;;;;;;;;;;;;7.44;100.00;97758.47;4862172;29;19928;-74
2020/12/12 04:41:05;;;;;;;;;;;;;;;7.43;100.00;97758.91;4862135;29;20369;-74
2020/12/12 04:43:32;;;;;;;;;;;;;;;7.41;100.00;97767.66;4846656;29;19928;-75
2020/12/12 04:45:59;;;;;;;;;;;;;;;7.51;100.00;97754.75;4861929;29;19928;-74
2020/12/12 04:48:26;;;;;;;;;;;;;;;7.42;100.00;97763.69;4846449;29;19929;-74
2020/12/12 04:50:54;;;;;;;;;;;;;;;7.42;100.00;97763.69;4862977;29;20028;-74
2020/12/12 04:53:24;;;;;;;;;;;;;;;7.41;100.00;97762.13;4862485;29;19928;-74
2020/12/12 04:55:52;;;;;;;;;;;;;;;7.49;100.00;97757.97;4862541;29;20016;-74
2020/12/12 04:58:20;;;;;;;;;;;;;;;7.56;100.00;97759.78;4845961;29;19946;-74
2020/12/12 05:00:47;;;;;;;;;;;;;;;7.53;100.00;97760.66;4862336;29;19928;-74
2020/12/12 05:03:15;;;;;;;;;;;;;;;7.53;100.00;97758.63;4862243;29;19927;-75
2020/12/12 05:05:42;;;;;;;;;;;;;;;7.55;100.00;97767.34;4862439;29;19932;-74
2020/12/12 05:08:10;;;;;;;;;;;;;;;7.55;100.00;97761.00;4845688;29;19934;-74
2020/12/12 05:10:39;;;;;;;;;;;;;;;7.59;100.00;97768.03;4862883;29;19935;-74
2020/12/12 05:13:13;;;;;;;;;;;;;;;7.50;100.00;97770.63;4862563;29;19929;-74
2020/12/12 05:15:40;;;;;;;;;;;;;;;7.44;100.00;97766.03;4862654;29;19978;-74
2020/12/12 05:18:08;;;;;;;;;;;;;;;7.47;100.00;97776.28;4862451;29;20023;-74
2020/12/12 05:20:37;;;;;;;;;;;;;;;7.49;100.00;97780.19;4861548;29;21789;-75
2020/12/12 05:23:14;;;;;;;;;;;;;;;7.52;100.00;97772.97;4862501;29;19935;-74
2020/12/12 05:25:41;;;;;;;;;;;;;;;7.43;100.00;97779.16;4862642;29;19980;-75
2020/12/12 05:28:09;;;;;;;;;;;;;;;7.49;100.00;97777.41;4862254;29;19936;-74
2020/12/12 05:30:36;;;;;;;;;;;;;;;7.52;100.00;97773.75;4845542;29;19932;-74
2020/12/12 05:33:06;;;;;;;;;;;;;;;7.53;100.00;97780.88;4862098;29;19928;-75
2020/12/12 05:35:32;;;;;;;;;;;;;;;7.55;100.00;97784.00;4860996;29;20394;-74
2020/12/12 05:38:00;;;;;;;;;;;;;;;7.54;100.00;97785.25;4845699;29;19928;-75
2020/12/12 05:40:26;;;;;;;;;;;;;;;7.57;100.00;97798.28;4860671;29;19935;-75
2020/12/12 05:42:53;;;;;;;;;;;;;;;7.57;100.00;97784.38;4861904;29;20397;-74
2020/12/12 05:45:20;;;;;;;;;;;;;;;7.55;100.00;97784.00;4845588;29;20268;-74
2020/12/12 05:47:46;;;;;;;;;;;;;;;7.53;100.00;97786.44;4845011;29;20026;-74
2020/12/12 05:50:13;;;;;;;;;;;;;;;7.54;100.00;97793.56;4862035;29;19935;-74
2020/12/12 05:52:41;;;;;;;;;;;;;;;7.50;100.00;97792.09;4845344;29;19934;-75
2020/12/12 05:55:08;;;;;;;;;;;;;;;7.44;100.00;97796.63;4845155;29;19939;-75
2020/12/12 05:57:38;;;;;;;;;;;;;;;7.41;100.00;97789.16;4861688;29;20018;-74
2020/12/12 06:00:06;;;;;;;;;;;;;;;7.48;100.00;97798.09;4861603;29;19971;-74
2020/12/12 06:02:42;;;;;;;;;;;;;;;7.54;100.00;97801.91;4861716;29;19935;-74
2020/12/12 06:05:14;;;;;;;;;;;;;;;7.56;100.00;97805.03;4860650;29;20312;-74
2020/12/12 06:07:42;;;;;;;;;;;;;;;7.52;100.00;97807.13;4861461;29;20324;-74
2020/12/12 06:10:09;;;;;;;;;;;;;;;7.56;100.00;97807.03;4845054;29;19928;-74
2020/12/12 06:12:36;;;;;;;;;;;;;;;7.55;100.00;97805.47;4860445;29;20297;-74
2020/12/12 06:15:03;;;;;;;;;;;;;;;7.52;100.00;97818.22;4845145;29;20429;-74
2020/12/12 06:17:30;;;;;;;;;;;;;;;7.49;100.00;97819.09;4861549;29;20397;-74
2020/12/12 06:19:57;;;;;;;;;;;;;;;7.47;100.00;97831.88;4844950;29;19928;-75
2020/12/12 06:22:24;;;;;;;;;;;;;;;7.46;100.00;97835.84;4861566;29;19935;-74
2020/12/12 06:24:57;;;;;;;;;;;;;;;7.44;100.00;97841.84;4844729;29;19928;-74
2020/12/12 06:27:26;;;;;;;;;;;;;;;7.45;100.00;97856.53;4859923;29;20344;-74
2020/12/12 06:29:52;;;;;;;;;;;;;;;7.46;100.00;97858.88;4861364;29;20385;-75
2020/12/12 06:32:19;;;;;;;;;;;;;;;7.44;100.00;97858.50;4860262;29;20412;-74
2020/12/12 06:34:48;;;;;;;;;;;;;;;7.44;100.00;97861.28;4844939;29;19928;-74
2020/12/12 06:37:24;;;;;;;;;;;;;;;7.47;100.00;97876.34;4844882;29;19928;-74
2020/12/12 06:39:50;;;;;;;;;;;;;;;7.44;100.00;97872.41;4860052;29;19928;-74
2020/12/12 06:42:38;;;;;;;;;;;;;;;7.45;100.00;97873.19;4861384;29;19928;-74
2020/12/12 06:45:14;;;;;;;;;;;;;;;7.50;100.00;97878.25;4860088;29;19932;-73
2020/12/12 06:47:42;;;;;;;;;;;;;;;7.49;100.00;97880.25;4861208;29;19932;-74
2020/12/12 06:50:10;;;;;;;;;;;;;;;7.46;100.00;97891.44;4861041;29;20284;-74
2020/12/12 06:52:36;;;;;;;;;;;;;;;7.49;100.00;97896.91;4844608;29;20019;-73
2020/12/12 06:55:05;;;;;;;;;;;;;;;7.50;100.00;97901.25;4844493;29;19957;-73
2020/12/12 06:57:37;;;;;;;;;;;;;;;7.51;100.00;97907.59;4861131;29;19928;-73
2020/12/12 07:00:05;;;;;;;;;;;;;;;7.50;100.00;97912.38;4860906;29;19951;-73
2020/12/12 07:02:32;;;;;;;;;;;;;;;7.48;100.00;97919.59;4860959;29;19947;-73
2020/12/12 07:05:16;;;;;;;;;;;;;;;7.49;100.00;97927.50;4844722;29;20373;-74
2020/12/12 07:07:43;;;;;;;;;;;;;;;7.45;100.00;97932.34;4859955;29;19936;-74
2020/12/12 07:10:10;;;;;;;;;;;;;;;7.43;100.00;97945.09;4860820;29;20006;-74
2020/12/12 07:12:37;;;;;;;;;;;;;;;7.47;100.00;97941.03;4861012;29;20376;-74
2020/12/12 07:15:04;;;;;;;;;;;;;;;7.47;100.00;97954.91;4861118;29;19928;-74
2020/12/12 07:17:32;;;;;;;;;;;;;;;7.50;100.00;97959.63;4861000;29;19959;-74
2020/12/12 07:19:59;;;;;;;;;;;;;;;7.55;100.00;97970.25;4860928;29;20387;-74
2020/12/12 07:22:27;;;;;;;;;;;;;;;7.50;100.00;97967.97;4860993;29;19928;-74
2020/12/12 07:24:57;;;;;;;;;;;;;;;7.55;100.00;97978.59;4860734;29;19928;-74
2020/12/12 07:27:24;;;;;;;;;;;;;;;7.52;100.00;97982.22;4860884;29;19950;-74
2020/12/12 07:29:50;;;;;;;;;;;;;;;7.55;100.00;97984.13;4860796;29;20308;-74
2020/12/12 07:32:17;;;;;;;;;;;;;;;7.57;100.00;97980.94;4860867;29;19944;-74
2020/12/12 07:34:43;;;;;;;;;;;;;;;7.61;100.00;98001.88;4859399;29;19928;-74
2020/12/12 07:37:10;;;;;;;;;;;;;;;7.60;100.00;98011.44;4862016;29;20028;-74
2020/12/12 07:39:38;;;;;;;;;;;;;;;7.58;100.00;98013.84;4831904;29;19982;-73
2020/12/12 07:42:06;;;;;;;;;;;;;;;7.59;100.00;98009.84;4863989;29;19928;-74
2020/12/12 07:44:39;;;;;;;;;;;;;;;7.57;100.00;98020.63;4863891;29;19928;-73
2020/12/12 07:47:10;;;;;;;;;;;;;;;7.61;100.00;98026.91;4863799;29;20409;-74
2020/12/12 07:49:37;;;;;;;;;;;;;;;7.62;100.00;98034.03;4864019;29;19979;-74
2020/12/12 07:52:08;;;;;;;;;;;;;;;7.65;100.00;98044.28;4847422;29;19928;-74
2020/12/12 07:54:49;;;;;;;;;;;;;;;7.59;100.00;98043.22;4847532;29;20362;-74
2020/12/12 07:57:16;;;;;;;;;;;;;;;7.64;100.00;98059.41;4862741;29;19928;-74
2020/12/12 07:59:43;;;;;;;;;;;;;;;7.66;100.00;98059.75;4862668;29;19932;-74
2020/12/12 08:02:11;;;;;;;;;;;;;;;7.58;100.00;98066.66;4863816;29;19932;-73
2020/12/12 08:04:37;;;;;;;;;;;;;;;7.52;100.00;98071.16;4863760;29;19935;-74
2020/12/12 08:07:08;;;;;;;;;;;;;;;7.52;100.00;98090.63;4847053;29;20359;-76
2020/12/12 08:09:35;;;;;;;;;;;;;;;7.47;100.00;98099.44;4863779;29;19932;-76
2020/12/12 08:12:02;;;;;;;;;;;;;;;7.45;100.00;98101.88;4847085;29;19932;-74
2020/12/12 08:14:31;;;;;;;;;;;;;;;7.45;100.00;98117.75;4863537;29;20395;-76
2020/12/12 08:16:59;;;;;;;;;;;;;;;7.49;100.00;98124.81;4863374;29;20312;-76
2020/12/12 08:19:29;;;;;;;;;;;;;;;7.49;100.00;98137.94;4863535;29;19984;-76
2020/12/12 08:22:06;;;;;;;;;;;;;;;7.47;100.00;98138.34;4863231;29;20349;-76
2020/12/12 08:24:33;;;;;;;;;;;;;;;7.48;100.00;98145.50;4847006;29;20368;-75
2020/12/12 08:27:00;;;;;;;;;;;;;;;7.49;100.00;98152.63;4863208;29;19928;-76
2020/12/12 08:29:26;;;;;;;;;;;;;;;7.47;100.00;98159.81;4863384;29;19935;-77
2020/12/12 08:31:53;;;;;;;;;;;;;;;7.45;100.00;98174.16;4862165;29;19928;-75
2020/12/12 08:34:20;;;;;;;;;;;;;;;7.40;100.00;98185.72;4863290;29;19928;-76
2020/12/12 08:36:47;;;;;;;;;;;;;;;7.38;100.00;98184.59;4846452;29;19928;-77
2020/12/12 08:39:13;;;;;;;;;;;;;;;7.37;100.00;98200.47;4863199;29;20073;-77
2020/12/12 08:41:42;;;;;;;;;;;;;;;7.38;100.00;98213.16;4863120;29;19929;-77
2020/12/12 08:44:21;;;;;;;;;;;;;;;7.35;100.00;98225.13;4863131;29;19938;-77
2020/12/12 08:46:51;;;;;;;;;;;;;;;7.37;100.00;98247.72;4863023;29;19932;-76
2020/12/12 08:49:18;;;;;;;;;;;;;;;7.38;100.00;98249.28;4846038;29;20347;-76
2020/12/12 08:51:51;;;;;;;;;;;;;;;7.35;100.00;98252.91;4862744;29;19928;-76
2020/12/12 08:54:17;;;;;;;;;;;;;;;7.34;100.00;98276.34;4863042;29;19935;-77
2020/12/12 08:56:44;;;;;;;;;;;;;;;7.34;100.00;98281.91;4862904;29;20301;-76
2020/12/12 08:59:20;;;;;;;;;;;;;;;7.30;100.00;98300.59;4862793;29;19928;-76
2020/12/12 09:01:47;;;;;;;;;;;;;;;7.30;100.00;98317.28;4858739;29;20376;-73
2020/12/12 09:04:17;;;;;;;;;;;;;;;7.31;100.00;98335.53;4857412;29;20392;-73
2020/12/12 09:06:54;;;;;;;;;;;;;;;7.25;100.00;98351.88;4842031;29;19988;-74
2020/12/12 09:09:24;;;;;;;;;;;;;;;7.24;100.00;98368.97;4857145;29;19928;-75
2020/12/12 09:12:07;;;;;;;;;;;;;;;7.25;100.00;98388.00;4858942;29;19928;-75
2020/12/12 09:14:34;;;;;;;;;;;;;;;7.25;100.00;98399.13;4858221;29;19971;-75
2020/12/12 09:17:08;;;;;;;;;;;;;;;7.26;100.00;98425.72;4858441;29;19928;-75
2020/12/12 09:19:36;;;;;;;;;;;;;;;7.33;100.00;98441.50;4858642;29;19932;-76
2020/12/12 09:22:07;;;;;;;;;;;;;;;7.32;100.00;98456.59;4858034;29;19978;-75
2020/12/12 09:24:33;;;;;;;;;;;;;;;7.29;100.00;98451.88;4857616;29;19932;-77
2020/12/12 09:27:01;;;;;;;;;;;;;;;7.22;100.00;98468.66;4858755;29;19928;-74
2020/12/12 09:29:28;;;;;;;;;;;;;;;7.19;100.00;98488.94;4857575;29;19939;-75
2020/12/12 09:31:55;;;;;;;;;;;;;;;7.16;100.00;98504.41;4840198;29;19928;-75
2020/12/12 09:34:23;;;;;;;;;;;;;;;7.13;100.00;98515.59;4856037;29;19929;-74
2020/12/12 09:36:50;;;;;;;;;;;;;;;7.13;100.00;98530.25;4856110;29;19928;-74
2020/12/12 09:39:17;;;;;;;;;;;;;;;7.09;100.00;98534.28;4857686;29;19928;-74
2020/12/12 09:41:44;;;;;;;;;;;;;;;7.10;100.00;98558.84;4858187;29;19939;-74
2020/12/12 09:44:11;;;;;;;;;;;;;;;7.13;100.00;98573.94;4857187;29;19934;-74
2020/12/12 09:46:38;;;;;;;;;;;;;;;7.12;100.00;98577.91;4857994;29;19928;-75
2020/12/12 09:49:04;;;;;;;;;;;;;;;7.11;100.00;98584.66;4857812;29;19928;-73
2020/12/12 09:51:31;;;;;;;;;;;;;;;7.15;100.00;98596.50;4857101;29;19959;-74
2020/12/12 09:53:58;;;;;;;;;;;;;;;7.16;100.00;98593.31;4858099;29;19928;-74
2020/12/12 09:56:24;;;;;;;;;;;;;;;7.18;100.00;98620.69;4857565;29;20344;-74
2020/12/12 09:58:51;;;;;;;;;;;;;;;7.21;100.00;98622.66;4841223;29;19932;-74
2020/12/12 10:01:17;;;;;;;;;;;;;;;7.18;100.00;98629.03;4857336;29;19928;-77
2020/12/12 10:03:44;;;;;;;;;;;;;;;7.17;100.00;98635.81;4839002;29;19939;-73
2020/12/12 10:06:11;;;;;;;;;;;;;;;7.19;100.00;98644.53;4842647;29;20669;-73
2020/12/12 10:08:37;;;;;;;;;;;;;;;7.20;100.00;98652.44;4876369;29;20055;-73
2020/12/12 10:11:04;;;;;;;;;;;;;;;7.19;100.00;98647.31;4860354;29;19929;-73
2020/12/12 10:13:31;;;;;;;;;;;;;;;7.17;100.00;98653.28;4857635;29;19935;-74
2020/12/12 10:15:58;;;;;;;;;;;;;;;7.20;100.00;98654.44;4857854;29;20574;-73
2020/12/12 10:18:25;;;;;;;;;;;;;;;7.17;100.00;98663.59;4857093;29;19928;-74
2020/12/12 10:20:52;;;;;;;;;;;;;;;7.10;100.00;98675.53;4856694;29;19956;-73
2020/12/12 10:23:19;;;;;;;;;;;;;;;7.05;100.00;98675.19;4856092;29;19933;-73
2020/12/12 10:25:45;;;;;;;;;;;;;;;6.98;100.00;98686.38;4856116;29;19929;-74
2020/12/12 10:28:12;;;;;;;;;;;;;;;6.95;100.00;98696.28;4857332;29;19928;-74
2020/12/12 10:30:38;;;;;;;;;;;;;;;6.98;100.00;98728.81;4855751;29;20034;-74
2020/12/12 10:33:10;;;;;;;;;;;;;;;6.92;100.00;98722.09;4858524;29;19929;-75
2020/12/12 10:35:36;;;;;;;;;;;;;;;6.86;100.00;98759.84;4865481;29;20285;-75
2020/12/12 10:38:03;;;;;;;;;;;;;;;6.84;100.00;98767.00;4857304;29;19935;-74
2020/12/12 10:42:57;;;;;;;;;;;;;;;6.91;100.00;98822.50;4857613;29;19928;-74
2020/12/12 10:45:23;;;;;;;;;;;;;;;6.91;100.00;98844.72;4857010;29;19980;-74
2020/12/12 10:47:50;;;;;;;;;;;;;;;6.89;100.00;98874.91;4856747;29;19928;-75
2020/12/12 10:50:16;;;;;;;;;;;;;;;6.93;100.00;98892.34;4857695;29;19928;-76
2020/12/12 10:52:43;;;;;;;;;;;;;;;6.91;100.00;98906.63;4857061;29;20583;-75
2020/12/12 10:55:10;;;;;;;;;;;;;;;6.91;100.00;98951.06;4857169;29;19978;-76
2020/12/12 10:57:36;;;;;;;;;;;;;;;6.92;100.00;98957.44;4857726;29;19976;-75
2020/12/12 11:00:04;;;;;;;;;;;;;;;6.90;100.00;98959.81;4863460;29;20018;-75
2020/12/12 11:02:33;;;;;;;;;;;;;;;6.89;100.00;98961.00;4876547;29;20348;-76
2020/12/12 11:05:00;;;;;;;;;;;;;;;6.88;100.00;98956.63;4861760;29;19993;-76
2020/12/12 11:07:26;;;;;;;;;;;;;;;6.89;100.00;98950.66;4879356;29;19934;-76
2020/12/12 11:09:53;;;;;;;;;;;;;;;6.92;100.00;98938.75;4879362;29;19928;-74
2020/12/12 11:12:23;;;;;;;;;;;;;;;6.92;100.00;98940.75;4864554;29;20008;-75
2020/12/12 11:14:54;;;;;;;;;;;;;;;6.92;100.00;98947.09;4881911;29;19927;-76
2020/12/12 11:17:21;;;;;;;;;;;;;;;6.93;100.00;98942.34;4883204;29;19928;-75
2020/12/12 11:19:48;;;;;;;;;;;;;;;6.93;100.00;98909.81;4875387;29;19927;-76
2020/12/12 11:22:14;;;;;;;;;;;;;;;6.93;100.00;98893.13;4883022;29;20022;-76
2020/12/12 11:24:41;;;;;;;;;;;;;;;6.92;100.00;98890.75;4883109;29;20335;-75
2020/12/12 11:27:07;;;;;;;;;;;;;;;6.93;100.00;98881.22;4866550;29;19928;-76
2020/12/12 11:29:34;;;;;;;;;;;;;;;6.95;100.00;98889.97;4865856;29;19954;-75
2020/12/12 11:32:00;;;;;;;;;;;;;;;6.96;100.00;98877.63;4866241;29;20030;-76
2020/12/12 11:35:07;;;;;;;;;;;;;;;6.97;100.00;98879.22;4882731;29;20015;-75
2020/12/12 11:40:13;;;;;;;;;;;;;;;6.90;100.00;98851.47;4877517;29;19958;-74
2020/12/12 11:43:06;;;;;;;;;;;;;;;6.88;100.00;98824.13;4872716;29;19928;-75
2020/12/12 11:48:05;;;;;;;;;;;;;;;6.96;100.00;98835.97;4845375;29;19928;-75
2020/12/12 11:50:31;;;;;;;;;;;;;;;6.97;100.00;98829.22;4845419;29;19928;-75
2020/12/12 11:52:58;;;;;;;;;;;;;;;6.96;100.00;98824.88;4861551;29;19929;-74
2020/12/12 11:55:24;;;;;;;;;;;;;;;6.97;100.00;98815.31;4863849;29;19972;-74
2020/12/12 11:57:51;;;;;;;;;;;;;;;6.92;100.00;98807.44;4863779;29;19935;-74
2020/12/12 12:00:19;;;;;;;;;;;;;;;6.89;100.00;98811.03;4863492;29;19939;-74
2020/12/12 12:02:45;;;;;;;;;;;;;;;6.83;100.00;98793.22;4863548;29;19951;-75
2020/12/12 12:05:12;;;;;;;;;;;;;;;6.83;100.00;98802.31;4863515;29;19932;-75
2020/12/12 12:07:43;;;;;;;;;;;;;;;6.83;100.00;98815.44;4847228;29;19939;-74
2020/12/12 12:10:27;;;;;;;;;;;;;;;6.84;100.00;98797.56;4863295;29;19950;-74
2020/12/12 12:12:57;;;;;;;;;;;;;;;6.86;100.00;98781.28;4863276;29;20353;-74
2020/12/12 12:15:23;;;;;;;;;;;;;;;6.87;100.00;98807.84;4863687;29;19932;-74
2020/12/12 12:17:50;;;;;;;;;;;;;;;6.87;100.00;98810.63;4863217;29;20022;-75
2020/12/12 12:20:16;;;;;;;;;;;;;;;6.87;100.00;98810.63;4863334;29;19985;-75
2020/12/12 12:22:42;;;;;;;;;;;;;;;6.90;100.00;98801.50;4863358;29;19939;-75
2020/12/12 12:25:09;;;;;;;;;;;;;;;6.83;100.00;98826.53;4862627;29;20303;-75
2020/12/12 12:27:38;;;;;;;;;;;;;;;6.85;100.00;98830.47;4863216;29;19928;-74
2020/12/12 12:30:05;;;;;;;;;;;;;;;6.84;100.00;98817.78;4862298;29;19929;-74
2020/12/12 12:32:32;;;;;;;;;;;;;;;6.87;100.00;98832.84;4863185;29;19928;-75
2020/12/12 12:34:58;;;;;;;;;;;;;;;6.87;100.00;98833.66;4863203;29;19939;-74
2020/12/12 12:37:25;;;;;;;;;;;;;;;6.92;100.00;98835.22;4863250;29;20381;-75
2020/12/12 12:39:51;;;;;;;;;;;;;;;6.93;100.00;98820.13;4863143;29;19928;-75
2020/12/12 12:42:40;;;;;;;;;;;;;;;6.98;100.00;98833.59;4848682;29;20020;-75
2020/12/12 12:45:07;;;;;;;;;;;;;;;6.96;100.00;98830.41;4863188;29;19977;-75
2020/12/12 12:47:33;;;;;;;;;;;;;;;6.90;100.00;98815.38;4861338;29;19935;-74
2020/12/12 12:50:00;;;;;;;;;;;;;;;6.88;100.00;98829.66;4860192;29;20377;-74
2020/12/12 12:52:26;;;;;;;;;;;;;;;6.87;100.00;98821.75;4861678;29;20024;-76
2020/12/12 12:54:53;;;;;;;;;;;;;;;6.87;100.00;98817.00;4861691;29;20445;-75
2020/12/12 12:57:19;;;;;;;;;;;;;;;6.85;100.00;98822.16;4861471;29;20308;-74
2020/12/12 12:59:46;;;;;;;;;;;;;;;6.88;100.00;98839.97;4860285;29;19935;-75